Nearby METAR Reports

 

KOXC - Oxford/Waterbury, Connecticut, USA
Distance from station: SE 8mi, 12km
Updated: Wed, 18-Sep-2019 1:51pm EDT
Mostly cloudy
Mostly cloudy
 Wind from NNE
Wind: NNE 14 mph , 22 km/h, Gust: 22 mph , 35 km/h
Temperature: 63°F , 17°C
Dew Point: 45°F , 7°C
Humidity: 52%
Barometer: 30.27 inHg , 1025.1 hPa
Clouds: Mostly cloudy
Visibility: 10 miles , 16 km
Cloud details: Mostly cloudy 4200 ft
2019/09/18 17:51 KOXC 181751Z 02012G19KT 10SM BKN042 17/07 A3027 RMK AO2 SLP263 T01720067 10178 20111 55002
KDXR - Danbury, Connecticut, USA
Distance from station: SW 19mi, 30km
Updated: Wed, 18-Sep-2019 1:53pm EDT
Mostly cloudy
Mostly cloudy
 Wind from NE
Wind: NE 8 mph , 13 km/h
Temperature: 64°F , 18°C
Dew Point: 43°F , 6°C
Humidity: 46%
Barometer: 30.27 inHg , 1025.1 hPa
Clouds: Mostly cloudy
Visibility: 10 miles , 16 km
Cloud details: Mostly cloudy 4700 ft
2019/09/18 17:53 KDXR 181753Z 05007KT 10SM BKN047 18/06 A3027 RMK AO2 SLP248 T01780061 10189 20094 55005
 
KMMK - Meriden, Connecticut, USA
Distance from station: E 20mi, 33km
Updated: Wed, 18-Sep-2019 1:53pm EDT
Mostly cloudy
Mostly cloudy
 Wind from NNE
Wind: NNE 13 mph , 20 km/h, Gust: 20 mph , 31 km/h
Temperature: 63°F , 17°C
Dew Point: 43°F , 6°C
Humidity: 49%
Barometer: 30.27 inHg , 1025.1 hPa
Clouds: Mostly cloudy
Visibility: 10 miles , 16 km
Cloud details: Mostly cloudy 4800 ft
2019/09/18 17:53 KMMK 181753Z AUTO 03011G17KT 10SM BKN048 17/06 A3027 RMK AO2 SLP251 T01670061 10183 20128 55001
KBDR - Bridgeport, Connecticut, USA
Distance from station: S 27mi, 44km
Updated: Wed, 18-Sep-2019 1:52pm EDT
Mostly cloudy
Mostly cloudy
 Wind from N
Wind: N 10 mph , 17 km/h
Temperature: 66°F , 19°C
Dew Point: 45°F , 7°C
Humidity: 46%
Barometer: 30.25 inHg , 1024.4 hPa
Clouds: Mostly cloudy
Visibility: 10 miles , 16 km
Cloud details: Mostly cloudy 4700 ft
2019/09/18 17:52 KBDR 181752Z 36009KT 10SM BKN047 19/07 A3025 RMK AO2 SLP245 T01890072 10194 20144 55005
 
KHVN - New Haven/Tweed, Connecticut, USA
Distance from station: SE 27mi, 44km
Updated: Wed, 18-Sep-2019 1:53pm EDT
Mostly cloudy
Mostly cloudy
 Wind from NNE
Wind: NNE 13 mph , 20 km/h, Gust: 20 mph , 31 km/h
Temperature: 66°F , 19°C
Dew Point: 45°F , 7°C
Humidity: 46%
Barometer: 30.26 inHg , 1024.7 hPa
Clouds: Mostly cloudy
Visibility: 10 miles , 16 km
Cloud details: Mostly cloudy 4700 ft
2019/09/18 17:53 KHVN 181753Z 02011G17KT 10SM BKN047 19/07 A3026 RMK AO2 SLP246 T01890072 10206 20150 55005
KHFD - Hartford/Brainar, Connecticut, USA
Distance from station: ENE 32mi, 52km
Updated: Wed, 18-Sep-2019 1:53pm EDT
Mostly cloudy
Mostly cloudy
 Wind from N
Wind: N 12 mph , 19 km/h
Temperature: 64°F , 18°C
Dew Point: 43°F , 6°C
Humidity: 46%
Barometer: 30.27 inHg , 1025.1 hPa
Clouds: Mostly cloudy
Visibility: 10 miles , 16 km
Cloud details: Mostly cloudy 4900 ft
2019/09/18 17:53 KHFD 181753Z 01010KT 10SM BKN049 18/06 A3027 RMK AO2 SLP251 T01780056 10183 20128 55003
 
KPOU - Poughkeepsie, New York, USA
Distance from station: W 35mi, 56km
Updated: Wed, 18-Sep-2019 1:53pm EDT
Mostly cloudy
Mostly cloudy
 Wind from varies
Wind: varies 7 mph , 11 km/h
Temperature: 68°F , 20°C
Dew Point: 46°F , 8°C
Humidity: 46%
Barometer: 30.24 inHg , 1024 hPa
Clouds: Mostly cloudy
Visibility: 10 miles , 16 km
Cloud details: Mostly cloudy 4700 ft
2019/09/18 17:53 KPOU 181753Z VRB06KT 10SM BKN047 20/08 A3024 RMK AO2 SLP238 T02000083 10206 20089 56008
KBDL - Windsor Locks, Connecticut, USA
Distance from station: NE 38mi, 62km
Updated: Wed, 18-Sep-2019 1:51pm EDT
Mostly cloudy
Mostly cloudy
 Wind from NNE
Wind: NNE 13 mph , 20 km/h
Temperature: 64°F , 18°C
Dew Point: 43°F , 6°C
Humidity: 46%
Barometer: 30.28 inHg , 1025.4 hPa
Clouds: Mostly cloudy
Visibility: 10 miles , 16 km
Cloud details: Mostly cloudy 4600 ft
2019/09/18 17:51 KBDL 181751Z 03011KT 10SM BKN046 18/06 A3028 RMK AO2 SLP254 T01830056 10189 20128 57003
 
KSNC - Chester, Connecticut, USA
Distance from station: ESE 39mi, 63km
Updated: Wed, 18-Sep-2019 2:15pm EDT
Mostly cloudy
Mostly cloudy
 Wind from NE
Wind: NE 8 mph , 13 km/h, Gust: 15 mph , 24 km/h
Temperature: 63°F , 17°C
Dew Point: 41°F , 5°C
Humidity: 45%
Barometer: 30.26 inHg , 1024.7 hPa
Clouds: Mostly cloudy
Visibility: 10 miles , 16 km
Cloud details: Mostly cloudy 4700 ft
2019/09/18 18:15 KSNC 181815Z AUTO 05007G13KT 010V080 10SM BKN047 17/05 A3026 RMK AO2
KHPN - White Plains, New York, USA
Distance from station: SW 42mi, 67km
Updated: Wed, 18-Sep-2019 1:56pm EDT
Mostly cloudy
Mostly cloudy
 Wind from varies
Wind: varies 7 mph , 11 km/h
Temperature: 66°F , 19°C
Dew Point: 45°F , 7°C
Humidity: 46%
Barometer: 30.24 inHg , 1024 hPa
Clouds: Mostly cloudy
Visibility: 10 miles , 16 km
Cloud details: Mostly cloudy 4400 ft
2019/09/18 17:56 KHPN 181756Z VRB06KT 10SM BKN044 19/07 A3024 RMK AO2 SLP240 T01890067 10194 20128 55006
 
KSWF - Newburgh/Stewart, New York, USA
Distance from station: W 45mi, 72km
Updated: Wed, 18-Sep-2019 1:45pm EDT
Partly cloudy
Partly cloudy
 Wind from ENE
Wind: ENE 9 mph , 15 km/h
Temperature: 68°F , 20°C
Dew Point: 50°F , 10°C
Humidity: 53%
Barometer: 30.26 inHg , 1024.7 hPa
Clouds: Partly cloudy
Visibility: 20 miles , 32 km
Cloud details: Partly cloudy 4000 ft
2019/09/18 17:45 KSWF 181745Z 06008KT 20SM SCT040 20/10 A3026
KBAF - Westfield, Massachusetts, USA
Distance from station: NNE 50mi, 80km
Updated: Wed, 18-Sep-2019 1:53pm EDT
Mostly cloudy
Mostly cloudy
 Wind from NNE
Wind: NNE 9 mph , 15 km/h, Gust: 20 mph , 31 km/h
Temperature: 63°F , 17°C
Dew Point: 43°F , 6°C
Humidity: 49%
Barometer: 30.28 inHg , 1025.4 hPa
Clouds: Mostly cloudy
Visibility: 10 miles , 16 km
Cloud details: Mostly cloudy 4600 ft
2019/09/18 17:53 KBAF 181753Z 03008G17KT 10SM BKN046 17/06 A3028 RMK AO2 SLP255 T01720056 10183 20111 58005